Aberdeen, Pennsylvania
Current Conditions -  °F | °C
As of 3:56 PM on Thursday 27 Nov 2014 (Local Time) from KMDT Reporting Station
Broken Clouds Broken Clouds  
Wind Chill:   Ceiling: 3500
Heat Index:   Visibility: 10mi
Dew Point: -2°   Wind: 3mph
Humidity: 73%   Direction: 330°NNW
Pressure: 30.05"   Gusts: NA
Location:  40.1674°N, 76.6045°W
Report Text: KMDT 272056Z 33003KT 10SM BKN035 BKN070 02/M02 A3005 RMK AO2 SLP181 T00221022 53007
Loading
Personal Weather Stations






























Interactive Weather Map New forecast layout! Learn more

10-Day Weather Forecast

Advertisements
Track Severe Weather on mobile